Eden, UT (84310)

10:00 AM MST on March 02, 2015 (GMT -0700)
Eden Acres | Change Station
CLOSE
Current Station
Personal Weather Station
Location: Eden, UT
Elevation: 4980 ft
Nearby Weather Stations

Elev 4980 ft 41.31 °N, 111.82 °W | Updated 14 seconds ago

Snow
Snow
30.8 °F
Feels Like 31 °F
N
1.0
Wind Variable Wind from ESE
Gusts 3.0 mph

Today
High -- | Low -- °F
--% Chance of Precip.
Yesterday
High -- | Low -- °F
Precip. -- in
7:00 AM 6:19 PM
Waxing Gibbous, 92% visible
Pressure 29.74 in
Visibility 10.0 miles
Clouds Mostly Cloudy 4200 ft
Overcast 5000 ft
Windchill 31 °F
Dew Point 29 °F
Humidity 92%
Rainfall 0.00 in
Snow Depth Not available.
UV 1 out of 12
Pollen 2.60 out of 12
Air Quality Not available.
Flu Activity Not available.
METAR KOGD 021653Z AUTO VRB03KT 10SM BKN042 OVC050 03/M01 A2974 RMK AO2 SLP070 T00331011 TSNO

More Conditions Fewer Conditions

Pressure 29.74 in
Visibility 10.0 miles
Clouds Mostly Cloudy 4200 ft
Overcast 5000 ft
Windchill 31 °F
Dew Point 29 °F
Humidity 92%
Rainfall 0.00 in
Snow Depth Not available.
UV 1 out of 12
Pollen 2.60 out of 12
Air Quality Not available.
Flu Activity Not available.
METAR KOGD 021653Z AUTO VRB03KT 10SM BKN042 OVC050 03/M01 A2974 RMK AO2 SLP070 T00331011 TSNO

More Conditions Fewer Conditions

10-Day Weather Forecast

Almanac

Astronomy

Mar. 02, 2015 Rise Set
Actual Time
Civil Twilight
Nautical Twilight
Astronomical Twilight
Moon
Length of Visible Light
Length of Day
Tomorrow will be .
, % of the Moon is Illuminated

Today's Extremes

State Highs State Lows

Community

WunderPhotos

Upload Photos

1,801,852 photos uploaded!

WunderBlogs® & News

Nearby

Air Quality

  Air Quality AQ Index Pollutant
Not available.

Snow Depth

Station Depth Elevation

Earthquake Activity

City Distance Mag. Time & Date
Minimum magnitude displayed is 2.5.

Coastal Water Temperatures

Place Temperature

Nearby Weather Stations